createdAt,value
2023-04-18T00:02:17.519Z,64.35
2023-04-18T00:04:47.838Z,64.43
2023-04-18T00:07:16.370Z,64.55
2023-04-18T00:09:44.227Z,64.53
2023-04-18T00:12:11.492Z,64.59
2023-04-18T00:14:38.891Z,64.51
2023-04-18T00:20:29.558Z,64.50
2023-04-18T00:22:56.644Z,64.51
2023-04-18T00:25:23.911Z,64.59
2023-04-18T00:27:51.042Z,64.65
2023-04-18T00:30:18.223Z,64.54
2023-04-18T00:32:45.392Z,64.42
2023-04-18T00:35:12.614Z,64.66
2023-04-18T00:37:39.739Z,64.71
2023-04-18T00:40:07.367Z,64.52
2023-04-18T00:42:34.522Z,64.79
2023-04-18T00:45:01.852Z,64.51
2023-04-18T00:47:29.065Z,64.75
2023-04-18T00:49:56.732Z,64.56
2023-04-18T00:52:27.301Z,64.75
2023-04-18T00:54:55.015Z,64.70
2023-04-18T00:57:22.770Z,64.68
2023-04-18T00:59:51.312Z,64.91
2023-04-18T01:02:19.378Z,64.74
2023-04-18T01:04:47.270Z,64.63
2023-04-18T01:07:15.275Z,64.72
2023-04-18T01:09:42.470Z,64.67
2023-04-18T01:12:09.629Z,64.88
2023-04-18T01:14:36.791Z,64.82
2023-04-18T01:17:03.977Z,64.49
2023-04-18T01:19:31.222Z,64.76
2023-04-18T01:22:13.495Z,64.76
2023-04-18T01:24:42.244Z,64.70
2023-04-18T01:27:16.166Z,64.68
2023-04-18T01:29:43.233Z,64.78
2023-04-18T01:32:10.336Z,64.83
2023-04-18T01:34:37.435Z,64.96
2023-04-18T01:37:06.311Z,64.71
2023-04-18T01:39:33.403Z,64.83
2023-04-18T01:42:02.242Z,64.71
2023-04-18T01:44:29.425Z,64.89
2023-04-18T01:46:56.512Z,64.80
2023-04-18T01:49:25.167Z,64.87
2023-04-18T01:51:52.142Z,64.81
2023-04-18T01:54:21.718Z,64.86
2023-04-18T01:56:48.914Z,64.86
2023-04-18T01:59:16.473Z,64.82
2023-04-18T02:01:44.902Z,64.97
2023-04-18T02:04:12.129Z,64.90
2023-04-18T02:06:39.549Z,64.71
2023-04-18T02:09:06.746Z,65.01
2023-04-18T02:11:33.862Z,64.96
2023-04-18T02:14:03.440Z,65.01
2023-04-18T02:16:30.612Z,64.97
2023-04-18T02:18:57.922Z,65.06
2023-04-18T02:21:25.057Z,64.94
2023-04-18T02:23:52.600Z,64.88
2023-04-18T02:26:22.696Z,64.76
2023-04-18T02:28:50.330Z,64.74
2023-04-18T02:31:17.651Z,65.00
2023-04-18T02:33:47.756Z,64.94
2023-04-18T02:36:15.060Z,65.02
2023-04-18T02:38:42.796Z,65.04
2023-04-18T02:41:15.151Z,64.91
2023-04-18T02:43:42.507Z,65.08
2023-04-18T02:46:10.157Z,65.10
2023-04-18T02:48:37.542Z,64.95
2023-04-18T02:51:06.864Z,65.11
2023-04-18T02:53:35.589Z,64.99
2023-04-18T02:56:02.957Z,65.22
2023-04-18T02:58:49.185Z,65.12
2023-04-18T03:01:37.258Z,64.95
2023-04-18T03:04:11.484Z,65.16
2023-04-18T03:06:43.319Z,65.12
2023-04-18T03:09:10.608Z,65.10
2023-04-18T03:11:42.257Z,65.00
2023-04-18T03:14:09.485Z,65.02
2023-04-18T03:16:49.059Z,65.22
2023-04-18T03:19:19.299Z,65.05
2023-04-18T03:21:46.503Z,65.03
2023-04-18T03:24:14.059Z,64.98
2023-04-18T03:26:41.830Z,65.06
2023-04-18T03:29:09.516Z,65.04
2023-04-18T03:31:36.673Z,65.09
2023-04-18T03:34:03.772Z,65.27
2023-04-18T03:36:31.484Z,65.16
2023-04-18T03:38:58.962Z,65.26
2023-04-18T03:41:26.293Z,65.22
2023-04-18T03:43:55.155Z,65.16
2023-04-18T03:46:22.453Z,65.03
2023-04-18T03:48:51.213Z,65.25
2023-04-18T03:51:18.562Z,65.31
2023-04-18T03:53:46.746Z,65.15
2023-04-18T03:56:13.941Z,65.12
2023-04-18T03:58:49.951Z,65.12
2023-04-18T04:01:17.272Z,65.22
2023-04-18T04:03:44.455Z,65.26
2023-04-18T04:06:12.091Z,65.31
2023-04-18T04:08:39.188Z,65.07
2023-04-18T04:11:06.405Z,65.26
2023-04-18T04:13:33.871Z,65.45
2023-04-18T04:16:01.599Z,65.45
2023-04-18T04:18:31.318Z,65.29
2023-04-18T04:21:00.871Z,65.30
2023-04-18T04:23:42.550Z,65.28
2023-04-18T04:26:10.240Z,65.21
2023-04-18T04:28:46.759Z,65.27
2023-04-18T04:31:16.485Z,65.26
2023-04-18T04:33:44.339Z,65.44
2023-04-18T04:36:18.870Z,65.18
2023-04-18T04:38:47.403Z,65.37
2023-04-18T04:41:15.313Z,65.33
2023-04-18T04:43:42.998Z,65.39
2023-04-18T04:46:13.937Z,65.48
2023-04-18T04:48:42.701Z,65.41
2023-04-18T04:51:09.875Z,65.44
2023-04-18T04:53:38.583Z,65.49
2023-04-18T04:56:07.232Z,65.44
2023-04-18T04:58:34.601Z,65.38
2023-04-18T05:01:18.711Z,65.40
2023-04-18T05:03:46.123Z,65.28
2023-04-18T05:06:20.509Z,65.57
2023-04-18T05:08:48.542Z,65.45
2023-04-18T05:11:16.383Z,65.54
2023-04-18T05:13:43.603Z,65.55
2023-04-18T05:16:11.299Z,65.53
2023-04-18T05:18:40.416Z,65.48
2023-04-18T05:21:07.868Z,65.47
2023-04-18T05:23:37.915Z,65.36
2023-04-18T05:26:05.668Z,65.47
2023-04-18T05:28:33.104Z,65.68
2023-04-18T05:31:03.378Z,65.34
2023-04-18T05:33:31.727Z,65.35
2023-04-18T05:35:59.081Z,65.38
2023-04-18T05:38:26.354Z,65.38
2023-04-18T05:40:55.734Z,65.31
2023-04-18T05:43:23.386Z,65.42
2023-04-18T05:45:52.577Z,65.46
2023-04-18T05:48:20.109Z,65.39
2023-04-18T05:50:47.261Z,65.30
2023-04-18T05:53:14.555Z,65.24
2023-04-18T05:55:41.840Z,65.46
2023-04-18T05:58:08.903Z,65.38
2023-04-18T06:00:36.276Z,65.44
2023-04-18T06:03:03.644Z,65.30
2023-04-18T06:05:31.367Z,65.48
2023-04-18T06:07:58.644Z,65.27
2023-04-18T06:10:25.867Z,65.29
2023-04-18T06:12:52.960Z,65.27
2023-04-18T06:15:20.037Z,65.36
2023-04-18T06:17:47.252Z,65.21
2023-04-18T06:20:14.429Z,65.36
2023-04-18T06:22:41.597Z,65.57
2023-04-18T06:25:10.160Z,65.30
2023-04-18T06:27:38.039Z,65.23
2023-04-18T06:30:06.176Z,65.31
2023-04-18T06:32:33.302Z,65.43
2023-04-18T06:35:00.513Z,65.29
2023-04-18T06:37:27.682Z,65.49
2023-04-18T06:39:54.752Z,65.39
2023-04-18T06:42:22.471Z,65.36
2023-04-18T06:44:50.314Z,65.31
2023-04-18T06:47:17.534Z,65.40
2023-04-18T06:49:44.677Z,65.30
2023-04-18T06:52:11.782Z,65.35
2023-04-18T06:54:38.861Z,65.36
2023-04-18T06:57:06.275Z,65.26
2023-04-18T06:59:33.424Z,65.23
2023-04-18T07:02:00.594Z,65.33
2023-04-18T07:04:27.835Z,65.24
2023-04-18T07:06:55.040Z,65.09
2023-04-18T07:09:22.839Z,65.29
2023-04-18T07:11:51.177Z,65.28
2023-04-18T07:14:20.027Z,65.17
2023-04-18T07:16:47.265Z,65.19
2023-04-18T07:19:14.480Z,65.21
2023-04-18T07:21:43.846Z,65.09
2023-04-18T07:24:12.378Z,65.22
2023-04-18T07:26:39.693Z,65.21
2023-04-18T07:29:06.775Z,65.20
2023-04-18T07:31:34.698Z,65.20
2023-04-18T07:34:01.845Z,65.28
2023-04-18T07:36:29.018Z,65.24
2023-04-18T07:38:56.140Z,65.35
2023-04-18T07:41:23.256Z,65.24
2023-04-18T07:43:50.427Z,65.35
2023-04-18T07:46:17.657Z,65.12
2023-04-18T07:48:44.952Z,65.09
2023-04-18T07:51:12.350Z,65.16
2023-04-18T07:53:41.256Z,65.22
2023-04-18T07:56:08.393Z,64.99
2023-04-18T07:58:35.674Z,65.04
2023-04-18T08:01:02.985Z,65.11
2023-04-18T08:03:30.366Z,65.08
2023-04-18T08:05:57.804Z,65.07
2023-04-18T08:08:25.108Z,65.13
2023-04-18T08:10:52.199Z,65.22
2023-04-18T08:13:19.396Z,65.17
2023-04-18T08:15:47.709Z,65.02
2023-04-18T08:18:14.841Z,64.90
2023-04-18T08:20:41.995Z,64.90
2023-04-18T08:23:12.222Z,64.97
2023-04-18T08:25:40.478Z,64.69
2023-04-18T08:28:07.655Z,64.81
2023-04-18T08:30:34.906Z,64.61
2023-04-18T08:33:02.370Z,64.68
2023-04-18T08:35:29.574Z,64.77
2023-04-18T08:37:56.892Z,64.83
2023-04-18T08:40:25.112Z,64.67
2023-04-18T08:42:54.114Z,64.72
2023-04-18T08:45:21.359Z,64.74
2023-04-18T08:47:48.611Z,64.51
2023-04-18T08:50:17.440Z,64.61
2023-04-18T08:52:50.281Z,64.40
2023-04-18T08:55:19.207Z,64.49
2023-04-18T08:57:47.585Z,64.39
2023-04-18T09:00:17.696Z,64.31
2023-04-18T09:02:47.003Z,64.43
2023-04-18T09:05:21.825Z,64.43
2023-04-18T09:07:51.651Z,64.25
2023-04-18T09:10:33.252Z,64.22
2023-04-18T09:13:03.529Z,64.30
2023-04-18T09:15:31.673Z,64.27
2023-04-18T09:18:02.460Z,64.30
2023-04-18T09:20:41.545Z,64.00
2023-04-18T09:23:11.121Z,63.95
2023-04-18T09:25:45.305Z,63.99
2023-04-18T09:28:28.059Z,64.01
2023-04-18T09:30:56.878Z,63.92
2023-04-18T09:33:33.965Z,63.94
2023-04-18T09:36:22.406Z,63.97
2023-04-18T09:38:53.730Z,63.91
2023-04-18T09:41:23.444Z,63.94
2023-04-18T09:44:07.748Z,63.87
2023-04-18T09:46:35.026Z,63.77
2023-04-18T09:49:02.332Z,63.65
2023-04-18T09:51:31.962Z,63.61
2023-04-18T09:54:00.170Z,63.62
2023-04-18T09:56:29.796Z,63.69
2023-04-18T09:59:08.236Z,63.72
2023-04-18T10:01:36.634Z,63.51
2023-04-18T10:04:06.759Z,63.62
2023-04-18T10:06:38.590Z,63.38
2023-04-18T10:09:08.959Z,63.41
2023-04-18T10:11:36.824Z,63.24
2023-04-18T10:14:08.130Z,63.18
2023-04-18T10:16:36.543Z,63.20
2023-04-18T10:19:27.090Z,63.34
2023-04-18T10:22:03.316Z,63.29
2023-04-18T10:24:49.535Z,63.20
2023-04-18T10:27:17.924Z,63.04
2023-04-18T10:29:51.331Z,62.95
2023-04-18T10:32:24.663Z,62.97
2023-04-18T10:34:54.350Z,62.96
2023-04-18T10:37:21.561Z,62.86
2023-04-18T10:40:03.035Z,62.74
2023-04-18T10:42:45.680Z,62.75
2023-04-18T10:45:22.404Z,62.62
2023-04-18T10:47:50.097Z,62.62
2023-04-18T10:50:17.733Z,62.67
2023-04-18T10:52:45.007Z,62.44
2023-04-18T10:55:19.139Z,62.29
2023-04-18T10:57:49.243Z,62.29
2023-04-18T11:00:18.845Z,62.35
2023-04-18T11:02:54.263Z,62.10
2023-04-18T11:05:22.626Z,62.07
2023-04-18T11:07:49.868Z,62.04
2023-04-18T11:10:21.482Z,62.18
2023-04-18T11:12:49.003Z,62.08
2023-04-18T11:15:21.607Z,62.44
2023-04-18T11:18:00.269Z,62.32
2023-04-18T11:20:28.550Z,62.18
2023-04-18T11:22:58.489Z,61.96
2023-04-18T11:25:30.705Z,62.00
2023-04-18T11:28:02.421Z,61.87
2023-04-18T11:30:37.775Z,61.85
2023-04-18T11:33:08.456Z,61.79
2023-04-18T11:35:40.130Z,61.64
2023-04-18T11:38:08.524Z,61.70
2023-04-18T11:40:37.096Z,61.61
2023-04-18T11:43:06.644Z,61.50
2023-04-18T11:45:33.768Z,61.50
2023-04-18T11:48:01.514Z,61.33
2023-04-18T11:50:28.877Z,61.27
2023-04-18T11:52:56.480Z,61.44
2023-04-18T11:55:25.562Z,61.39
2023-04-18T11:57:54.757Z,61.26
2023-04-18T12:00:37.545Z,61.15
2023-04-18T12:03:08.123Z,61.03
2023-04-18T12:05:37.597Z,61.04
2023-04-18T12:08:06.949Z,61.04
2023-04-18T12:10:35.906Z,61.05
2023-04-18T12:13:07.903Z,60.85
2023-04-18T12:15:38.795Z,60.86
2023-04-18T12:18:08.490Z,60.77
2023-04-18T12:20:37.054Z,60.67
2023-04-18T12:23:04.688Z,60.63
2023-04-18T12:25:32.825Z,60.60
2023-04-18T12:28:20.017Z,60.42
2023-04-18T12:30:47.172Z,60.24
2023-04-18T12:33:14.309Z,60.28
2023-04-18T12:35:42.610Z,60.12
2023-04-18T12:38:09.759Z,60.30
2023-04-18T12:40:39.280Z,60.33
2023-04-18T12:43:06.956Z,60.19
2023-04-18T12:45:34.046Z,60.11
2023-04-18T12:48:01.223Z,60.15
2023-04-18T12:50:28.598Z,59.88
2023-04-18T12:52:59.637Z,59.97
2023-04-18T12:55:27.560Z,59.82
2023-04-18T12:57:55.524Z,59.73
2023-04-18T13:00:23.967Z,59.83
2023-04-18T13:02:52.841Z,59.65
2023-04-18T13:05:23.151Z,59.62
2023-04-18T13:07:56.365Z,59.51
2023-04-18T13:10:32.196Z,59.46
2023-04-18T13:12:59.323Z,59.35
2023-04-18T13:15:27.643Z,59.14
2023-04-18T13:17:56.697Z,59.17
2023-04-18T13:20:24.158Z,59.19
2023-04-18T13:22:51.332Z,59.10
2023-04-18T13:25:18.529Z,59.04
2023-04-18T13:27:46.008Z,58.92
2023-04-18T13:30:13.483Z,58.82
2023-04-18T13:32:41.008Z,58.79
2023-04-18T13:35:10.753Z,58.68
2023-04-18T13:37:38.707Z,58.92
2023-04-18T13:40:06.709Z,58.90
2023-04-18T13:42:35.922Z,58.76
2023-04-18T13:45:03.424Z,58.72
2023-04-18T13:47:30.643Z,58.71
2023-04-18T13:49:58.033Z,58.65
2023-04-18T13:52:26.250Z,58.74
2023-04-18T13:54:53.491Z,58.43
2023-04-18T13:57:21.061Z,58.57
2023-04-18T13:59:48.288Z,58.50
2023-04-18T14:02:15.922Z,58.39
2023-04-18T14:04:43.300Z,58.41
2023-04-18T14:07:10.803Z,58.15
2023-04-18T14:09:38.001Z,58.17
2023-04-18T14:12:05.416Z,58.00
2023-04-18T14:14:32.596Z,57.97
2023-04-18T14:16:59.798Z,58.02
2023-04-18T14:19:27.444Z,57.99
2023-04-18T14:21:54.657Z,57.94
2023-04-18T14:24:21.813Z,57.93
2023-04-18T14:26:48.891Z,57.88
2023-04-18T14:29:16.106Z,57.89
2023-04-18T14:31:43.473Z,57.95
2023-04-18T14:34:10.780Z,57.91
2023-04-18T14:36:37.943Z,57.89
2023-04-18T14:39:05.609Z,58.13
2023-04-18T14:41:33.085Z,57.78
2023-04-18T14:44:00.301Z,57.83
2023-04-18T14:46:28.478Z,57.79
2023-04-18T14:48:55.765Z,57.87
2023-04-18T14:51:23.810Z,57.81
2023-04-18T14:53:51.392Z,57.90
2023-04-18T14:56:21.250Z,57.95
2023-04-18T14:58:48.569Z,57.95
2023-04-18T15:01:17.622Z,57.66
2023-04-18T15:03:45.513Z,57.74
2023-04-18T15:06:12.957Z,57.75
2023-04-18T15:08:40.219Z,57.59
2023-04-18T15:11:08.309Z,57.56
2023-04-18T15:13:35.766Z,57.49
2023-04-18T15:16:03.389Z,57.59
2023-04-18T15:18:30.749Z,57.49
2023-04-18T15:21:00.116Z,57.29
2023-04-18T15:23:27.684Z,57.19
2023-04-18T15:25:54.909Z,57.22
2023-04-18T15:28:22.217Z,57.10
2023-04-18T15:30:49.324Z,57.24
2023-04-18T15:33:19.142Z,57.16
2023-04-18T15:35:48.131Z,57.17
2023-04-18T15:38:15.337Z,57.13
2023-04-18T15:40:43.624Z,57.28
2023-04-18T15:43:10.864Z,57.28
2023-04-18T15:45:38.096Z,57.16
2023-04-18T15:48:05.474Z,57.31
2023-04-18T15:50:33.939Z,57.29
2023-04-18T15:53:02.010Z,57.26
2023-04-18T15:55:29.243Z,57.23
2023-04-18T15:57:56.517Z,57.12
2023-04-18T16:00:24.119Z,57.20
2023-04-18T16:02:51.414Z,57.08
2023-04-18T16:05:18.653Z,57.30
2023-04-18T16:07:45.899Z,57.37
2023-04-18T16:10:15.252Z,57.35
2023-04-18T16:12:42.599Z,57.27
2023-04-18T16:15:10.381Z,57.30
2023-04-18T16:17:38.002Z,57.36
2023-04-18T16:20:06.361Z,57.47
2023-04-18T16:22:33.808Z,57.38
2023-04-18T16:25:00.928Z,57.28
2023-04-18T16:27:28.337Z,57.33
2023-04-18T16:29:55.396Z,57.48
2023-04-18T16:32:22.633Z,57.27
2023-04-18T16:34:49.935Z,57.38
2023-04-18T16:37:17.158Z,57.18
2023-04-18T16:39:44.207Z,57.23
2023-04-18T16:42:12.468Z,57.26
2023-04-18T16:44:41.230Z,57.20
2023-04-18T16:47:08.452Z,57.22
2023-04-18T16:49:35.852Z,57.39
2023-04-18T16:52:03.024Z,57.36
2023-04-18T16:54:30.150Z,57.42
2023-04-18T16:56:57.327Z,57.39
2023-04-18T16:59:24.463Z,57.35
2023-04-18T17:01:51.527Z,57.38
2023-04-18T17:04:18.769Z,57.33
2023-04-18T17:06:46.694Z,57.34
2023-04-18T17:09:14.772Z,57.33
2023-04-18T17:11:42.176Z,57.55
2023-04-18T17:14:09.622Z,57.48
2023-04-18T17:16:40.967Z,57.35
2023-04-18T17:19:09.040Z,57.34
2023-04-18T17:21:36.979Z,57.41
2023-04-18T17:24:06.781Z,57.30
2023-04-18T17:26:34.940Z,57.40
2023-04-18T17:29:04.313Z,57.38
2023-04-18T17:31:31.914Z,57.39
2023-04-18T17:33:59.712Z,57.52
2023-04-18T17:36:27.301Z,57.38
2023-04-18T17:38:54.504Z,57.43
2023-04-18T17:41:22.309Z,57.43
2023-04-18T17:43:53.188Z,57.47
2023-04-18T17:46:20.466Z,57.63
2023-04-18T17:48:47.542Z,57.56
2023-04-18T17:51:16.559Z,57.45
2023-04-18T17:53:43.676Z,57.59
2023-04-18T17:56:11.007Z,57.61
2023-04-18T17:58:38.181Z,57.59
2023-04-18T18:01:14.914Z,57.62
2023-04-18T18:03:43.130Z,57.70
2023-04-18T18:06:14.530Z,57.75
2023-04-18T18:08:43.429Z,57.79
2023-04-18T18:11:11.120Z,57.84
2023-04-18T18:13:40.962Z,57.73
2023-04-18T18:16:09.050Z,57.73
2023-04-18T18:18:36.977Z,57.82
2023-04-18T18:21:04.107Z,57.79
2023-04-18T18:23:31.401Z,57.80
2023-04-18T18:25:58.730Z,57.86
2023-04-18T18:28:26.097Z,57.94
2023-04-18T18:30:53.989Z,57.95
2023-04-18T18:33:21.271Z,57.91
2023-04-18T18:35:48.458Z,57.92
2023-04-18T18:38:15.720Z,57.92
2023-04-18T18:40:42.880Z,57.86
2023-04-18T18:43:09.992Z,58.01
2023-04-18T18:45:38.243Z,58.08
2023-04-18T18:48:07.339Z,58.13
2023-04-18T18:50:34.606Z,58.09
2023-04-18T18:53:01.988Z,58.01
2023-04-18T18:55:29.973Z,58.17
2023-04-18T18:57:57.127Z,58.10
2023-04-18T19:00:24.913Z,58.19
2023-04-18T19:02:52.279Z,57.86
2023-04-18T19:05:19.823Z,58.17
2023-04-18T19:07:46.877Z,58.24
2023-04-18T19:10:14.052Z,57.99
2023-04-18T19:12:41.352Z,57.83
2023-04-18T19:15:09.372Z,58.20
2023-04-18T19:17:36.649Z,58.12
2023-04-18T19:20:04.269Z,58.33
2023-04-18T19:22:31.361Z,58.06
2023-04-18T19:25:00.532Z,58.00
2023-04-18T19:27:27.685Z,58.11
2023-04-18T19:29:54.685Z,58.12
2023-04-18T19:32:22.024Z,58.42
2023-04-18T19:34:49.806Z,58.25
2023-04-18T19:37:16.939Z,58.10
2023-04-18T19:39:44.133Z,58.21
2023-04-18T19:42:11.354Z,58.29
2023-04-18T19:44:38.510Z,58.13
2023-04-18T19:47:05.761Z,58.28
2023-04-18T19:49:32.973Z,58.32
2023-04-18T19:52:00.109Z,58.31
2023-04-18T19:54:27.497Z,58.25
2023-04-18T19:56:54.693Z,58.27
2023-04-18T19:59:21.847Z,58.39
2023-04-18T20:01:48.976Z,58.33
2023-04-18T20:04:16.277Z,58.32
2023-04-18T20:06:43.769Z,58.25
2023-04-18T20:09:15.549Z,58.27
2023-04-18T20:11:43.596Z,58.38
2023-04-18T20:14:10.644Z,58.41
2023-04-18T20:16:39.101Z,58.56
2023-04-18T20:19:06.314Z,58.52
2023-04-18T20:21:33.387Z,58.49
2023-04-18T20:24:00.489Z,58.62
2023-04-18T20:26:27.627Z,58.64
2023-04-18T20:28:54.781Z,58.44
2023-04-18T20:31:21.862Z,58.64
2023-04-18T20:33:48.975Z,58.60
2023-04-18T20:36:17.729Z,58.51
2023-04-18T20:38:44.976Z,58.59
2023-04-18T20:41:15.039Z,58.56
2023-04-18T20:43:43.524Z,58.77
2023-04-18T20:46:14.161Z,58.78
2023-04-18T20:48:41.280Z,58.66
2023-04-18T20:51:08.470Z,58.79
2023-04-18T20:53:35.818Z,58.75
2023-04-18T20:56:03.216Z,58.63
2023-04-18T20:58:30.342Z,58.71
2023-04-18T21:00:57.414Z,58.55
2023-04-18T21:03:24.703Z,58.47
2023-04-18T21:05:52.650Z,58.63
2023-04-18T21:08:19.798Z,58.67
2023-04-18T21:10:46.906Z,58.54
2023-04-18T21:13:14.171Z,58.41
2023-04-18T21:15:42.720Z,58.73
2023-04-18T21:18:09.987Z,58.54
2023-04-18T21:20:38.678Z,58.42
2023-04-18T21:23:06.527Z,58.36
2023-04-18T21:25:33.650Z,58.24
2023-04-18T21:28:00.898Z,58.27
2023-04-18T21:30:28.001Z,58.26
2023-04-18T21:32:55.210Z,58.38
2023-04-18T21:35:24.229Z,58.26
2023-04-18T21:37:51.939Z,58.04
2023-04-18T21:40:19.114Z,58.30
2023-04-18T21:42:47.680Z,58.21
2023-04-18T21:45:16.429Z,58.26
2023-04-18T21:47:44.042Z,58.18
2023-04-18T21:50:11.597Z,58.08
2023-04-18T21:52:38.762Z,58.21
2023-04-18T21:55:06.258Z,58.18
2023-04-18T21:57:33.431Z,58.05
2023-04-18T22:00:00.592Z,58.26
2023-04-18T22:02:27.912Z,58.27
2023-04-18T22:04:55.400Z,58.42
2023-04-18T22:07:24.716Z,58.50
2023-04-18T22:09:51.848Z,58.44
2023-04-18T22:12:19.348Z,58.22
2023-04-18T22:14:48.613Z,58.42
2023-04-18T22:17:15.814Z,58.41
2023-04-18T22:19:44.646Z,58.43
2023-04-18T22:22:11.936Z,58.30
2023-04-18T22:24:39.040Z,58.41
2023-04-18T22:27:06.225Z,58.47
2023-04-18T22:29:33.331Z,58.11
2023-04-18T22:32:00.495Z,58.31
2023-04-18T22:34:27.611Z,58.31
2023-04-18T22:36:54.771Z,58.45
2023-04-18T22:39:21.904Z,58.40
2023-04-18T22:41:48.945Z,58.33
2023-04-18T22:44:16.333Z,58.38
2023-04-18T22:46:43.801Z,58.37
2023-04-18T22:49:10.894Z,58.22
2023-04-18T22:51:38.333Z,58.36
2023-04-18T22:54:05.774Z,58.41
2023-04-18T22:56:32.890Z,58.39
2023-04-18T22:59:00.055Z,58.45
2023-04-18T23:01:27.458Z,58.39
2023-04-18T23:03:54.777Z,58.42
2023-04-18T23:06:22.376Z,58.33
2023-04-18T23:08:49.960Z,58.53
2023-04-18T23:11:17.139Z,58.47
2023-04-18T23:13:44.218Z,58.50
2023-04-18T23:16:11.377Z,58.57
2023-04-18T23:18:38.489Z,58.55
2023-04-18T23:21:06.108Z,58.59
2023-04-18T23:23:33.285Z,58.48
2023-04-18T23:26:00.702Z,58.60
2023-04-18T23:28:27.874Z,58.57
2023-04-18T23:30:54.963Z,58.46
2023-04-18T23:33:22.506Z,58.50
2023-04-18T23:35:49.595Z,58.49
2023-04-18T23:38:16.757Z,58.47
2023-04-18T23:40:43.899Z,58.60
2023-04-18T23:43:10.979Z,58.53
2023-04-18T23:45:38.102Z,58.33
2023-04-18T23:48:05.428Z,58.39
2023-04-18T23:50:32.994Z,58.35
2023-04-18T23:53:00.117Z,58.45
2023-04-18T23:55:27.465Z,58.59
2023-04-18T23:57:54.727Z,58.46
